Estación Meteorológica Peña el Pijo (Robertgarden) [ 07/21/18 15:54:13 CEST ]

Fecha Hora Presion(HPa) Temp (°C) Humedad % Rocio (°C) Viento ( m/s) Direccion Lluvia 1Hora(mm) Lluvia 24H(mm) LLuvia Total(mm)
2018-May-12 01:01:49 1009.900 11.2 84 8.6       0.51 215.48
2018-May-12 02:01:41 1009.700 10.5 85 8.0       0.51 215.48
2018-May-12 03:01:49 1009.200 9.9 86 7.6       0.51 215.48
2018-May-12 04:01:42 1008.800 9.6 87 7.5       0.51 215.48
2018-May-12 05:01:41 1008.200 9.8 87 7.7       0.51 215.48
2018-May-12 06:01:45 1008.200 9.1 87 7.0       0.51 215.48
2018-May-12 07:01:56 1007.800 8.8 87 6.8       0.51 215.48
2018-May-12 08:01:34 1007.900 9.9 88 8.0       0.51 215.48
2018-May-12 09:01:34 1007.700 14.2 86 11.9       0.51 215.48
2018-May-12 10:01:46 1007.200 19.1 61 11.4       0.51 215.48
2018-May-12 11:01:44 1007.200 22.3 42 8.7       0.51 215.48
2018-May-12 12:01:34 1007.300 23.3 38 8.1 3.1 NW   0.51 215.48
2018-May-12 13:01:52 1007.200 22.4 41 8.5       0.51 215.48
2018-May-12 14:02:02 1007.000 20.9 42 7.5       0.51 215.48
2018-May-12 15:02:16 1006.400 22.9 36 6.9 3.1 N   0.51 215.48
2018-May-12 16:02:01 1005.900 23.8 37 8.2       0.51 215.48
2018-May-12 17:01:43 1005.700 21.3 41 7.5         215.48
2018-May-12 18:01:51 1005.300 21.3 39 6.8 1.5 S     215.48
2018-May-12 19:01:41 1005.600 18.6 39 4.3         215.48
2018-May-12 20:01:49 1005.700 16.4 46 4.7         215.48
2018-May-12 21:01:47 1005.800 14.2 54 5.0         215.48
2018-May-12 22:01:59 1006.200 13.3 57 4.9 2.8 N     215.48
2018-May-12 23:01:46 1006.900 12.6 54 3.5         215.48

Temperatura Máxima:23°    Temperatura Mínima:
Presión Máxima:1009.900 Hpa    Presión Mínima:1005.300 Hpa


Volver